Weather reports worldwide

Advertisment
Panocchia, Italy (16131): temperature: 17.05.2019 14:00:00 - 23.05.2019 14:00:00 (CEST)Panocchia, Italy (16131): wind speed: 17.05.2019 14:00:00 - 23.05.2019 14:00:00 (CEST)Panocchia, Italy (16131): wind direction: 17.05.2019 14:00:00 - 23.05.2019 14:00:00 (CEST)Panocchia, Italy (16131): reduced air pressure: 17.05.2019 14:00:00 - 23.05.2019 14:00:00 (CEST)
Date & Time tt [°C] ff [km/h] ff [kn] dd ppp [hPa]
23.05.2019 14:00:00 - - - - -
23.05.2019 13:00:00 - - - - -
23.05.2019 12:00:00 - - - - -
23.05.2019 11:00:00 21,0 5 3 NNE 1016,3
23.05.2019 10:00:00 20,5 5 3 NNE 1016,2
23.05.2019 09:00:00 20,0 4 2 N 1016,2
23.05.2019 08:00:00 15,6 9 5 WSW 1016,4
23.05.2019 07:00:00 13,0 14 8 SW 1016,6
23.05.2019 06:00:00 12,5 13 7 WSW 1016,4
23.05.2019 05:00:00 12,9 9 5 WSW 1016,4
23.05.2019 04:00:00 12,9 10 5 SW 1016,4
23.05.2019 03:00:00 12,6 10 5 WSW 1016,2
23.05.2019 02:00:00 12,3 11 6 SW 1016,3
23.05.2019 01:00:00 13,2 4 2 S 1016,3
23.05.2019 00:00:00 13,8 18 10 WSW 1015,4
22.05.2019 23:00:00 14,8 20 11 WSW 1015,0
22.05.2019 22:00:00 15,0 16 9 WSW 1014,9
22.05.2019 21:00:00 15,1 16 8 SW 1014,2
22.05.2019 20:00:00 17,4 10 5 SW 1013,5
22.05.2019 19:00:00 18,8 10 5 WSW 1013,3
22.05.2019 18:00:00 17,0 14 8 WSW 1013,5
22.05.2019 17:00:00 15,1 16 9 SW 1013,8
22.05.2019 16:00:00 16,0 13 7 W 1014,1
22.05.2019 15:00:00 22,0 8 4 E 1013,1
22.05.2019 14:00:00 23,7 8 4 NNE 1013,1
22.05.2019 13:00:00 22,5 - - - -
22.05.2019 12:00:00 21,8 - - - -
22.05.2019 11:00:00 20,6 6 3 E 1014,1
22.05.2019 10:00:00 18,8 7 4 E 1014,3
22.05.2019 09:00:00 17,3 - - - -
22.05.2019 08:00:00 14,7 3 1 ENE 1014,2
22.05.2019 07:00:00 13,5 7 4 WSW 1014,0
22.05.2019 06:00:00 12,2 8 5 W 1013,9
22.05.2019 05:00:00 14,2 12 7 W 1013,3
22.05.2019 04:00:00 14,6 7 4 W 1013,1
22.05.2019 03:00:00 14,4 9 5 NW 1012,9
22.05.2019 02:00:00 14,6 2 1 W 1012,4
22.05.2019 01:00:00 14,2 9 5 WSW 1012,5
22.05.2019 00:00:00 12,3 8 5 W 1013,3
21.05.2019 23:00:00 13,6 4 2 WNW 1013,1
21.05.2019 22:00:00 13,6 7 4 SSE 1012,7
21.05.2019 21:00:00 17,7 12 7 W 1011,1
21.05.2019 20:00:00 19,4 3 2 SW 1009,7
21.05.2019 19:00:00 22,6 11 6 W 1008,7
21.05.2019 18:00:00 23,4 15 8 W 1008,8
21.05.2019 17:00:00 24,4 14 7 W 1008,6
21.05.2019 16:00:00 24,5 16 9 W 1008,6
21.05.2019 15:00:00 23,9 19 11 W 1008,6
21.05.2019 14:00:00 24,0 18 10 WNW 1008,2
21.05.2019 13:00:00 23,5 16 9 WNW 1008,0
21.05.2019 12:00:00 23,3 16 9 W 1007,8
21.05.2019 11:00:00 20,9 7 4 ENE 1007,9
21.05.2019 10:00:00 19,3 3 2 N 1008,0
21.05.2019 09:00:00 16,9 3 1 NE 1008,0
21.05.2019 08:00:00 14,1 - - - 1007,8
21.05.2019 07:00:00 11,8 5 3 SSE 1007,7
21.05.2019 06:00:00 11,4 - - - 1007,4
21.05.2019 05:00:00 12,1 6 3 S 1007,0
21.05.2019 04:00:00 12,4 4 2 SE 1007,2
21.05.2019 03:00:00 12,7 5 3 E 1007,3
21.05.2019 02:00:00 13,6 3 2 SSW 1007,2
21.05.2019 01:00:00 13,9 8 4 WSW 1007,1
21.05.2019 00:00:00 12,9 - - - 1007,5
20.05.2019 23:00:00 13,8 7 4 W 1007,3
20.05.2019 22:00:00 13,6 7 4 WSW 1007,0
20.05.2019 21:00:00 14,3 6 3 SW 1006,7
20.05.2019 20:00:00 14,7 2 1 ESE 1006,4
20.05.2019 19:00:00 16,2 7 4 SW 1006,2
20.05.2019 18:00:00 16,5 12 6 W 1006,2
20.05.2019 17:00:00 18,0 14 8 WNW 1005,8
20.05.2019 16:00:00 18,1 8 4 WNW 1005,7
20.05.2019 15:00:00 18,1 11 6 W 1005,7
20.05.2019 14:00:00 18,9 12 6 WNW 1005,3
20.05.2019 13:00:00 19,4 7 4 ESE 1005,1
20.05.2019 12:00:00 17,2 6 3 E 1005,2
20.05.2019 11:00:00 16,0 4 2 ENE 1005,3
20.05.2019 10:00:00 13,9 5 3 ESE 1005,4
20.05.2019 09:00:00 12,5 3 1 SSW 1005,1
20.05.2019 08:00:00 11,9 6 4 WSW 1004,7
20.05.2019 07:00:00 11,5 5 3 SW 1004,6
20.05.2019 06:00:00 11,5 4 2 W 1004,5
20.05.2019 05:00:00 11,6 3 2 W 1004,7
20.05.2019 04:00:00 11,7 - - - 1004,8
20.05.2019 03:00:00 11,8 4 2 SSW 1004,8
20.05.2019 02:00:00 12,2 0 0 ENE 1005,0
20.05.2019 01:00:00 12,5 3 1 WSW 1005,2
20.05.2019 00:00:00 12,5 3 1 NNW 1005,4
19.05.2019 23:00:00 12,7 3 2 NW 1005,5
19.05.2019 22:00:00 12,7 3 1 NNW 1005,4
19.05.2019 21:00:00 12,9 3 2 NW 1005,1
19.05.2019 20:00:00 13,0 3 2 NW 1004,9
19.05.2019 19:00:00 13,3 5 3 N 1004,7
19.05.2019 18:00:00 13,5 11 6 N 1004,7
19.05.2019 17:00:00 14,0 11 6 N 1004,4
19.05.2019 16:00:00 16,3 8 4 NNW 1004,2
19.05.2019 15:00:00 15,9 9 5 NNW 1004,1
19.05.2019 14:00:00 14,6 8 5 N 1004,3
19.05.2019 13:00:00 13,8 8 4 N 1004,4
19.05.2019 12:00:00 14,8 10 6 NNW 1004,3
19.05.2019 11:00:00 14,0 9 5 NNW 1004,4
19.05.2019 10:00:00 12,7 6 3 NW 1004,6
19.05.2019 09:00:00 11,9 7 4 NNW 1004,7
19.05.2019 08:00:00 11,4 5 3 NW 1004,6
19.05.2019 07:00:00 11,2 5 3 NW 1004,7
19.05.2019 06:00:00 11,3 5 3 NW 1004,9
19.05.2019 05:00:00 11,4 7 4 NW 1005,0
19.05.2019 04:00:00 11,6 8 5 NW 1005,1
19.05.2019 03:00:00 11,6 7 4 WNW 1005,7
19.05.2019 02:00:00 11,6 6 3 NW 1006,1
19.05.2019 01:00:00 11,8 7 4 N 1006,4
19.05.2019 00:00:00 11,8 9 5 NW 1006,6
18.05.2019 23:00:00 11,8 7 4 WNW 1006,8
18.05.2019 22:00:00 11,7 6 3 NW 1006,9
18.05.2019 21:00:00 11,9 4 2 NNW 1006,7
18.05.2019 20:00:00 11,9 4 2 WNW 1006,3
18.05.2019 19:00:00 12,0 2 1 ENE 1006,3
18.05.2019 18:00:00 12,1 9 5 E 1006,2
18.05.2019 17:00:00 12,2 16 9 ENE 1006,0
18.05.2019 16:00:00 12,2 18 10 ENE 1005,8
18.05.2019 15:00:00 12,3 13 7 ENE 1006,1
18.05.2019 14:00:00 12,7 11 6 NE 1006,2
18.05.2019 13:00:00 12,2 6 3 ENE 1006,6
18.05.2019 12:00:00 12,0 4 2 NNE 1006,6
18.05.2019 11:00:00 11,6 6 4 ENE 1006,8
18.05.2019 10:00:00 11,2 9 5 ENE 1006,7
18.05.2019 09:00:00 11,3 9 5 E 1006,7
18.05.2019 08:00:00 11,2 15 8 E 1006,4
18.05.2019 07:00:00 11,2 16 9 ENE 1006,4
18.05.2019 06:00:00 11,3 15 8 ENE 1006,1
18.05.2019 05:00:00 11,2 8 4 E 1006,4
18.05.2019 04:00:00 11,4 17 9 ENE 1006,9
18.05.2019 03:00:00 11,7 14 7 NE 1007,5
18.05.2019 02:00:00 12,0 10 5 ENE 1007,9
18.05.2019 01:00:00 12,4 9 5 ENE 1007,9
18.05.2019 00:00:00 12,8 2 1 ENE 1008,2
17.05.2019 23:00:00 13,0 3 2 NE 1008,5
17.05.2019 22:00:00 13,2 4 2 ENE 1008,5
17.05.2019 21:00:00 13,7 5 3 ENE 1008,1
17.05.2019 20:00:00 14,4 5 3 W 1007,9
17.05.2019 19:00:00 15,2 4 2 E 1007,5
17.05.2019 18:00:00 - - - - -
17.05.2019 17:00:00 15,9 3 2 SW 1008,2
17.05.2019 16:00:00 15,4 4 2 ENE 1008,5
17.05.2019 15:00:00 18,2 16 9 E 1008,5
17.05.2019 14:00:00 18,7 16 8 E 1008,6

tt = temperature
ff = wind speed
dd = wind direction
ppp = reduced air pressure

Next stations